createdAt,value
2018-01-20T00:01:32.649Z,7.07
2018-01-20T00:04:00.151Z,4.70
2018-01-20T00:06:27.667Z,11.97
2018-01-20T00:08:55.175Z,4.17
2018-01-20T00:11:35.176Z,7.40
2018-01-20T00:14:02.675Z,5.73
2018-01-20T00:16:30.175Z,10.53
2018-01-20T00:18:57.710Z,6.43
2018-01-20T00:21:25.983Z,7.17
2018-01-20T00:23:53.527Z,6.00
2018-01-20T00:26:26.696Z,5.77
2018-01-20T00:28:54.211Z,5.10
2018-01-20T00:31:21.731Z,5.13
2018-01-20T00:33:49.264Z,6.73
2018-01-20T00:36:16.809Z,6.73
2018-01-20T00:38:44.320Z,3.53
2018-01-20T00:41:11.853Z,5.50
2018-01-20T00:43:39.365Z,4.03
2018-01-20T00:46:06.892Z,5.07
2018-01-20T00:48:34.429Z,4.53
2018-01-20T00:51:01.960Z,5.57
2018-01-20T00:53:29.567Z,4.03
2018-01-20T00:55:57.869Z,5.70
2018-01-20T00:58:25.413Z,3.77
2018-01-20T01:00:52.993Z,4.07
2018-01-20T01:03:20.522Z,7.93
2018-01-20T01:05:48.090Z,2.97
2018-01-20T01:08:15.684Z,6.47
2018-01-20T01:10:43.251Z,7.53
2018-01-20T01:13:10.819Z,5.67
2018-01-20T01:15:38.341Z,5.57
2018-01-20T01:18:05.871Z,10.03
2018-01-20T01:20:33.394Z,4.80
2018-01-20T01:23:00.959Z,4.47
2018-01-20T01:25:28.520Z,6.00
2018-01-20T01:27:56.052Z,8.13
2018-01-20T01:30:23.612Z,9.03
2018-01-20T01:32:51.172Z,2.97
2018-01-20T01:35:18.722Z,5.13
2018-01-20T01:37:46.288Z,3.87
2018-01-20T01:40:13.868Z,8.37
2018-01-20T01:42:41.385Z,3.97
2018-01-20T01:45:08.912Z,5.00
2018-01-20T01:47:36.478Z,4.83
2018-01-20T01:50:04.842Z,5.20
2018-01-20T01:52:32.398Z,4.53
2018-01-20T01:54:59.950Z,3.10
2018-01-20T01:57:28.262Z,6.30
2018-01-20T01:59:55.835Z,3.97
2018-01-20T02:02:23.376Z,4.57
2018-01-20T02:04:50.903Z,2.87
2018-01-20T02:07:18.427Z,2.83
2018-01-20T02:09:45.966Z,2.93
2018-01-20T02:12:13.553Z,3.77
2018-01-20T02:14:41.074Z,4.53
2018-01-20T02:17:08.625Z,3.53
2018-01-20T02:19:36.356Z,3.33
2018-01-20T02:22:03.885Z,2.47
2018-01-20T02:24:31.466Z,5.57
2018-01-20T02:26:59.026Z,5.67
2018-01-20T02:29:26.559Z,6.17
2018-01-20T02:31:54.082Z,4.50
2018-01-20T02:34:21.605Z,3.30
2018-01-20T02:36:49.107Z,9.30
2018-01-20T02:39:16.623Z,6.47
2018-01-20T02:41:44.150Z,2.87
2018-01-20T02:44:12.435Z,3.33
2018-01-20T02:46:40.042Z,3.07
2018-01-20T02:49:07.628Z,4.47
2018-01-20T02:51:35.154Z,3.20
2018-01-20T02:54:03.484Z,2.87
2018-01-20T02:56:31.025Z,4.23
2018-01-20T02:58:58.561Z,5.53
2018-01-20T03:01:26.895Z,4.57
2018-01-20T03:03:54.459Z,4.83
2018-01-20T03:06:21.993Z,2.57
2018-01-20T03:08:49.692Z,3.87
2018-01-20T03:11:17.228Z,6.70
2018-01-20T03:13:44.815Z,3.83
2018-01-20T03:16:12.381Z,5.47
2018-01-20T03:18:41.044Z,7.20
2018-01-20T03:21:08.578Z,3.93
2018-01-20T03:23:36.113Z,4.07
2018-01-20T03:26:04.398Z,6.03
2018-01-20T03:28:31.915Z,5.50
2018-01-20T03:30:59.446Z,5.63
2018-01-20T03:33:26.963Z,5.37
2018-01-20T03:35:54.538Z,3.33
2018-01-20T03:38:22.854Z,3.97
2018-01-20T03:40:50.378Z,3.40
2018-01-20T03:43:18.672Z,4.10
2018-01-20T03:45:46.197Z,2.97
2018-01-20T03:48:14.481Z,4.57
2018-01-20T03:50:42.002Z,4.23
2018-01-20T03:53:09.540Z,5.20
2018-01-20T03:55:37.085Z,3.33
2018-01-20T03:58:04.597Z,6.93
2018-01-20T04:00:32.117Z,3.07
2018-01-20T04:02:59.653Z,4.03
2018-01-20T04:05:27.175Z,2.40
2018-01-20T04:07:54.709Z,3.13
2018-01-20T04:10:22.205Z,2.43
2018-01-20T04:12:50.961Z,4.47
2018-01-20T04:15:18.521Z,2.83
2018-01-20T04:17:45.978Z,3.63
2018-01-20T04:20:13.493Z,2.77
2018-01-20T04:22:41.005Z,4.17
2018-01-20T04:25:08.513Z,2.13
2018-01-20T04:27:36.050Z,3.53
2018-01-20T04:30:04.365Z,2.30
2018-01-20T04:32:31.897Z,3.60
2018-01-20T04:34:59.423Z,3.30
2018-01-20T04:37:26.946Z,5.93
2018-01-20T04:39:54.469Z,6.13
2018-01-20T04:42:21.987Z,8.40
2018-01-20T04:44:49.526Z,6.83
2018-01-20T04:47:17.039Z,5.17
2018-01-20T04:49:45.314Z,11.90
2018-01-20T04:52:12.845Z,8.17
2018-01-20T04:54:40.345Z,12.17
2018-01-20T04:57:07.851Z,10.90
2018-01-20T04:59:35.417Z,8.80
2018-01-20T05:02:02.919Z,5.93
2018-01-20T05:04:31.197Z,3.73
2018-01-20T05:06:58.757Z,2.50
2018-01-20T05:09:26.326Z,3.53
2018-01-20T05:11:53.895Z,2.43
2018-01-20T05:14:21.479Z,4.20
2018-01-20T05:16:49.011Z,5.37
2018-01-20T05:19:16.521Z,4.10
2018-01-20T05:21:44.037Z,5.90
2018-01-20T05:24:11.557Z,3.73
2018-01-20T05:26:39.067Z,3.10
2018-01-20T05:29:06.605Z,6.60
2018-01-20T05:31:34.149Z,11.30
2018-01-20T05:34:01.675Z,3.67
2018-01-20T05:36:29.193Z,4.47
2018-01-20T05:38:56.734Z,2.97
2018-01-20T05:41:24.275Z,4.33
2018-01-20T05:43:51.835Z,3.70
2018-01-20T05:46:19.421Z,4.43
2018-01-20T05:48:46.976Z,7.33
2018-01-20T05:51:14.528Z,5.17
2018-01-20T05:53:42.029Z,4.37
2018-01-20T05:56:09.533Z,4.90
2018-01-20T05:58:37.187Z,7.43
2018-01-20T06:01:04.737Z,6.17
2018-01-20T06:03:33.021Z,3.20
2018-01-20T06:06:00.571Z,5.37
2018-01-20T06:08:28.081Z,1.60
2018-01-20T06:10:55.605Z,1.50
2018-01-20T06:13:23.928Z,1.50
2018-01-20T06:15:51.439Z,1.80
2018-01-20T06:18:18.953Z,1.43
2018-01-20T06:20:46.469Z,1.40
2018-01-20T06:23:14.004Z,1.50
2018-01-20T06:25:42.289Z,2.20
2018-01-20T06:28:09.811Z,1.80
2018-01-20T06:30:37.320Z,1.70
2018-01-20T06:33:04.820Z,1.77
2018-01-20T06:35:32.403Z,1.87
2018-01-20T06:37:59.937Z,1.80
2018-01-20T06:40:27.454Z,3.30
2018-01-20T06:42:54.980Z,3.03
2018-01-20T06:45:22.537Z,3.90
2018-01-20T06:47:50.062Z,4.53
2018-01-20T06:50:17.657Z,5.00
2018-01-20T06:52:45.200Z,4.90
2018-01-20T06:55:12.729Z,6.00
2018-01-20T06:57:40.281Z,5.20
2018-01-20T07:00:07.829Z,4.43
2018-01-20T07:02:35.377Z,4.80
2018-01-20T07:05:03.677Z,5.10
2018-01-20T07:07:31.235Z,5.23
2018-01-20T07:09:58.756Z,5.27
2018-01-20T07:12:26.309Z,5.67
2018-01-20T07:14:53.821Z,5.10
2018-01-20T07:17:21.381Z,3.80
2018-01-20T07:19:48.929Z,3.30
2018-01-20T07:22:16.461Z,4.83
2018-01-20T07:24:44.751Z,5.03
2018-01-20T07:27:13.035Z,3.17
2018-01-20T07:29:40.548Z,2.43
2018-01-20T07:32:08.065Z,2.63
2018-01-20T07:34:35.611Z,3.13
2018-01-20T07:37:03.149Z,3.37
2018-01-20T07:39:31.435Z,4.20
2018-01-20T07:41:58.990Z,4.37
2018-01-20T07:44:27.297Z,4.40
2018-01-20T07:46:54.879Z,4.43
2018-01-20T07:49:22.371Z,4.43
2018-01-20T07:51:49.929Z,3.80
2018-01-20T07:54:17.439Z,4.07
2018-01-20T07:56:44.975Z,4.50
2018-01-20T07:59:12.515Z,4.77
2018-01-20T08:01:40.047Z,4.30
2018-01-20T08:04:07.593Z,4.40
2018-01-20T08:06:35.128Z,4.30
2018-01-20T08:09:02.676Z,4.63
2018-01-20T08:11:30.441Z,5.03
2018-01-20T08:13:57.968Z,4.23
2018-01-20T08:16:25.487Z,4.67
2018-01-20T08:18:53.033Z,4.80
2018-01-20T08:21:20.556Z,5.00
2018-01-20T08:23:48.089Z,5.50
2018-01-20T08:26:15.637Z,4.57
2018-01-20T08:28:43.909Z,5.27
2018-01-20T08:31:11.427Z,3.97
2018-01-20T08:33:39.011Z,4.63
2018-01-20T08:36:06.524Z,4.63
2018-01-20T08:38:34.047Z,3.53
2018-01-20T08:41:01.599Z,4.13
2018-01-20T08:43:29.127Z,2.40
2018-01-20T08:45:56.673Z,2.50
2018-01-20T08:48:24.209Z,2.63
2018-01-20T08:50:51.715Z,1.97
2018-01-20T08:53:19.242Z,1.97
2018-01-20T08:55:46.791Z,2.70
2018-01-20T08:58:14.329Z,2.40
2018-01-20T09:00:41.867Z,1.93
2018-01-20T09:03:09.412Z,3.17
2018-01-20T09:05:36.977Z,1.90
2018-01-20T09:08:04.531Z,1.97
2018-01-20T09:10:32.065Z,2.10
2018-01-20T09:12:59.619Z,1.67
2018-01-20T09:15:27.909Z,2.13
2018-01-20T09:17:55.469Z,1.90
2018-01-20T09:20:22.992Z,2.20
2018-01-20T09:22:50.521Z,4.30
2018-01-20T09:25:18.117Z,2.20
2018-01-20T09:27:45.667Z,2.13
2018-01-20T09:30:13.191Z,2.10
2018-01-20T09:32:40.709Z,2.30
2018-01-20T09:35:09.005Z,1.80
2018-01-20T09:37:36.557Z,2.00
2018-01-20T09:40:04.123Z,2.53
2018-01-20T09:42:31.649Z,5.83
2018-01-20T09:44:59.255Z,4.50
2018-01-20T09:47:26.819Z,4.90
2018-01-20T09:49:54.441Z,4.20
2018-01-20T09:52:21.961Z,4.57
2018-01-20T09:54:49.485Z,4.20
2018-01-20T09:57:17.003Z,7.57
2018-01-20T09:59:45.323Z,6.90
2018-01-20T10:02:12.853Z,5.00
2018-01-20T10:04:40.379Z,4.77
2018-01-20T10:07:07.913Z,7.13
2018-01-20T10:09:35.463Z,4.97
2018-01-20T10:12:02.990Z,5.50
2018-01-20T10:14:31.277Z,4.50
2018-01-20T10:16:59.579Z,4.93
2018-01-20T10:19:27.127Z,5.87
2018-01-20T10:21:54.701Z,6.57
2018-01-20T10:24:22.241Z,7.60
2018-01-20T10:26:49.777Z,5.73
2018-01-20T10:29:18.071Z,7.20
2018-01-20T10:31:45.635Z,6.57
2018-01-20T10:34:13.180Z,7.30
2018-01-20T10:36:41.459Z,10.07
2018-01-20T10:39:09.741Z,8.70
2018-01-20T10:41:37.284Z,8.53
2018-01-20T10:44:04.825Z,7.17
2018-01-20T10:46:32.370Z,6.37
2018-01-20T10:48:59.951Z,5.73
2018-01-20T10:51:28.281Z,5.57
2018-01-20T10:53:55.859Z,5.83
2018-01-20T10:56:23.407Z,7.73
2018-01-20T10:58:50.953Z,5.40
2018-01-20T11:01:18.516Z,4.30
2018-01-20T11:03:46.031Z,4.37
2018-01-20T11:06:13.589Z,6.17
2018-01-20T11:08:41.151Z,4.63
2018-01-20T11:11:08.691Z,5.40
2018-01-20T11:13:36.273Z,6.97
2018-01-20T11:16:04.609Z,5.70
2018-01-20T11:18:32.125Z,4.40
2018-01-20T11:20:59.696Z,3.27
2018-01-20T11:23:27.230Z,4.47
2018-01-20T11:25:54.819Z,5.97
2018-01-20T11:28:22.379Z,5.73
2018-01-20T11:30:49.924Z,3.87
2018-01-20T11:33:18.223Z,3.33
2018-01-20T11:35:45.873Z,3.90
2018-01-20T11:38:13.401Z,10.77
2018-01-20T11:40:40.935Z,4.77
2018-01-20T11:43:08.538Z,5.17
2018-01-20T11:45:36.084Z,3.45
2018-01-20T11:48:03.632Z,4.37
2018-01-20T11:50:31.222Z,2.17
2018-01-20T11:52:58.812Z,7.27
2018-01-20T11:55:26.565Z,2.27
2018-01-20T11:57:54.190Z,3.10
2018-01-20T12:00:21.756Z,3.07
2018-01-20T12:02:50.041Z,3.53
2018-01-20T12:05:18.412Z,6.67
2018-01-20T12:07:46.034Z,6.43
2018-01-20T12:10:13.528Z,5.97
2018-01-20T12:12:41.093Z,4.40
2018-01-20T12:15:09.438Z,2.43
2018-01-20T12:20:04.452Z,5.07
2018-01-20T12:22:32.004Z,2.87
2018-01-20T12:24:59.543Z,2.97
2018-01-20T12:27:27.149Z,2.90
2018-01-20T12:29:54.674Z,3.50
2018-01-20T12:32:22.203Z,2.50
2018-01-20T12:34:49.790Z,2.60
2018-01-20T12:37:17.368Z,3.20
2018-01-20T12:39:44.889Z,3.70
2018-01-20T12:42:12.432Z,3.13
2018-01-20T12:44:40.868Z,2.77
2018-01-20T12:47:08.456Z,7.03
2018-01-20T12:49:36.021Z,4.47
2018-01-20T12:52:04.349Z,7.27
2018-01-20T12:54:31.902Z,7.83
2018-01-20T12:56:59.470Z,3.63
2018-01-20T12:59:27.021Z,2.37
2018-01-20T13:01:54.572Z,9.87
2018-01-20T13:04:22.120Z,10.53
2018-01-20T13:06:49.670Z,6.23
2018-01-20T13:09:17.992Z,6.40
2018-01-20T13:11:45.561Z,6.27
2018-01-20T13:14:13.093Z,161.50
2018-01-20T13:16:40.602Z,40.60
2018-01-20T13:19:08.129Z,16.50
2018-01-20T13:21:35.674Z,2.00
2018-01-20T13:24:03.210Z,8.53
2018-01-20T13:26:31.532Z,11.83
2018-01-20T13:28:59.058Z,7.53
2018-01-20T13:31:26.598Z,2.63
2018-01-20T13:33:54.146Z,11.33
2018-01-20T13:36:22.432Z,3.03
2018-01-20T13:38:50.718Z,1.77
2018-01-20T13:41:18.346Z,10.93
2018-01-20T13:43:45.879Z,83.63
2018-01-20T13:46:13.429Z,69.67
2018-01-20T13:48:40.984Z,63.00
2018-01-20T13:51:08.519Z,72.90
2018-01-20T13:53:36.057Z,10.53
2018-01-20T13:56:04.377Z,3.33
2018-01-20T13:58:31.909Z,4.20
2018-01-20T14:00:59.464Z,13.83
2018-01-20T14:03:27.764Z,19.17
2018-01-20T14:05:55.316Z,28.50
2018-01-20T14:08:22.863Z,23.50
2018-01-20T14:10:50.476Z,19.80
2018-01-20T14:13:18.080Z,10.10
2018-01-20T14:15:45.631Z,11.10
2018-01-20T14:18:13.967Z,12.57
2018-01-20T14:20:41.512Z,16.30
2018-01-20T14:23:09.033Z,13.30
2018-01-20T14:25:36.673Z,15.63
2018-01-20T14:28:04.227Z,38.53
2018-01-20T14:30:31.748Z,31.00
2018-01-20T14:32:59.347Z,46.93
2018-01-20T14:35:26.893Z,24.27
2018-01-20T14:37:54.451Z,17.93
2018-01-20T14:40:22.016Z,16.67
2018-01-20T14:42:49.564Z,14.53
2018-01-20T14:45:17.172Z,10.20
2018-01-20T14:47:45.552Z,8.33
2018-01-20T14:50:13.089Z,6.47
2018-01-20T14:52:40.627Z,8.70
2018-01-20T14:55:08.307Z,7.27
2018-01-20T14:57:35.903Z,7.20
2018-01-20T15:00:03.532Z,5.67
2018-01-20T15:02:31.103Z,6.43
2018-01-20T15:04:58.653Z,5.00
2018-01-20T15:07:26.212Z,3.97
2018-01-20T15:09:54.557Z,5.83
2018-01-20T15:12:22.092Z,6.63
2018-01-20T15:14:50.400Z,9.13
2018-01-20T15:17:17.973Z,9.50
2018-01-20T15:19:45.548Z,5.87
2018-01-20T15:22:13.089Z,4.27
2018-01-20T15:24:40.615Z,3.13
2018-01-20T15:27:08.176Z,3.63
2018-01-20T15:29:35.734Z,2.20
2018-01-20T15:32:03.250Z,2.90
2018-01-20T15:34:31.553Z,3.13
2018-01-20T15:36:59.085Z,31.33
2018-01-20T15:39:27.414Z,67.07
2018-01-20T15:41:54.980Z,43.70
2018-01-20T15:44:22.602Z,24.97
2018-01-20T15:46:50.918Z,38.43
2018-01-20T15:49:18.452Z,34.43
2018-01-20T15:51:46.043Z,27.30
2018-01-20T15:54:13.569Z,16.80
2018-01-20T15:56:41.113Z,7.80
2018-01-20T15:59:08.650Z,8.07
2018-01-20T16:01:36.179Z,4.60
2018-01-20T16:04:03.774Z,4.77
2018-01-20T16:06:32.102Z,14.40
2018-01-20T16:08:59.630Z,7.70
2018-01-20T16:11:27.148Z,7.77
2018-01-20T16:13:54.687Z,6.73
2018-01-20T16:16:22.251Z,11.67
2018-01-20T16:18:49.764Z,13.57
2018-01-20T16:21:17.336Z,17.43
2018-01-20T16:23:44.876Z,18.23
2018-01-20T16:26:12.567Z,20.23
2018-01-20T16:28:40.125Z,26.80
2018-01-20T16:31:07.664Z,24.17
2018-01-20T16:33:35.213Z,39.77
2018-01-20T16:36:02.776Z,44.73
2018-01-20T16:38:30.357Z,47.17
2018-01-20T16:40:58.042Z,22.77
2018-01-20T16:43:25.661Z,19.13
2018-01-20T16:45:53.372Z,19.77
2018-01-20T16:48:20.890Z,20.07
2018-01-20T16:50:48.480Z,17.27
2018-01-20T16:53:16.025Z,19.37
2018-01-20T16:55:43.578Z,19.43
2018-01-20T16:58:11.174Z,19.47
2018-01-20T17:00:38.730Z,22.30
2018-01-20T17:03:06.421Z,19.50
2018-01-20T17:05:33.965Z,21.83
2018-01-20T17:08:01.533Z,21.93
2018-01-20T17:10:29.086Z,20.63
2018-01-20T17:12:56.673Z,13.47
2018-01-20T17:15:25.001Z,14.10
2018-01-20T17:17:52.594Z,26.70
2018-01-20T17:20:21.436Z,21.47
2018-01-20T17:22:49.090Z,16.00
2018-01-20T17:25:16.649Z,14.00
2018-01-20T17:27:44.307Z,12.03
2018-01-20T17:30:11.903Z,14.27
2018-01-20T17:32:39.421Z,12.33
2018-01-20T17:35:06.944Z,14.50
2018-01-20T17:37:34.446Z,17.07
2018-01-20T17:40:02.016Z,20.37
2018-01-20T17:42:29.588Z,26.17
2018-01-20T17:44:57.093Z,19.53
2018-01-20T17:47:24.606Z,21.87
2018-01-20T17:49:52.154Z,21.17
2018-01-20T17:52:19.676Z,19.77
2018-01-20T17:54:47.990Z,17.43
2018-01-20T17:57:15.669Z,18.63
2018-01-20T17:59:43.205Z,19.40
2018-01-20T18:02:10.744Z,16.90
2018-01-20T18:04:38.308Z,14.50
2018-01-20T18:07:05.864Z,15.33
2018-01-20T18:09:33.740Z,21.57
2018-01-20T18:12:01.290Z,52.33
2018-01-20T18:14:29.587Z,42.83
2018-01-20T18:16:57.171Z,32.17
2018-01-20T18:19:24.702Z,20.03
2018-01-20T18:21:52.686Z,15.27
2018-01-20T18:24:20.196Z,12.70
2018-01-20T18:26:48.510Z,14.17
2018-01-20T18:29:16.818Z,13.47
2018-01-20T18:31:44.341Z,14.33
2018-01-20T18:34:11.884Z,16.67
2018-01-20T18:36:40.303Z,15.60
2018-01-20T18:39:07.870Z,13.03
2018-01-20T18:41:35.416Z,12.67
2018-01-20T18:44:02.944Z,15.20
2018-01-20T18:46:31.287Z,13.93
2018-01-20T18:48:58.830Z,14.17
2018-01-20T18:51:26.442Z,14.43
2018-01-20T18:53:53.982Z,12.73
2018-01-20T18:56:22.283Z,14.67
2018-01-20T18:58:49.784Z,11.63
2018-01-20T19:01:17.292Z,15.07
2018-01-20T19:03:45.632Z,16.80
2018-01-20T19:06:13.140Z,13.43
2018-01-20T19:08:40.652Z,15.57
2018-01-20T19:11:08.240Z,14.33
2018-01-20T19:13:35.754Z,14.70
2018-01-20T19:16:03.274Z,16.17
2018-01-20T19:18:30.860Z,17.77
2018-01-20T19:20:58.478Z,19.70
2018-01-20T19:23:26.008Z,19.03
2018-01-20T19:25:53.996Z,18.67
2018-01-20T19:28:22.316Z,16.37
2018-01-20T19:30:49.844Z,17.43
2018-01-20T19:33:18.144Z,11.87
2018-01-20T19:35:45.676Z,13.57
2018-01-20T19:38:13.199Z,16.33
2018-01-20T19:40:40.762Z,13.37
2018-01-20T19:43:08.314Z,13.67
2018-01-20T19:45:35.874Z,16.90
2018-01-20T19:48:03.474Z,21.60
2018-01-20T19:50:31.126Z,17.17
2018-01-20T19:52:58.696Z,17.83
2018-01-20T19:55:27.179Z,22.50
2018-01-20T19:57:54.769Z,21.17
2018-01-20T20:00:22.288Z,27.73
2018-01-20T20:02:50.077Z,41.47
2018-01-20T20:05:17.656Z,26.03
2018-01-20T20:07:45.200Z,23.93
2018-01-20T20:10:12.796Z,22.13
2018-01-20T20:12:40.368Z,23.57
2018-01-20T20:15:07.936Z,27.97
2018-01-20T20:17:35.519Z,23.73
2018-01-20T20:20:03.968Z,26.93
2018-01-20T20:22:31.526Z,26.50
2018-01-20T20:24:59.081Z,30.17
2018-01-20T20:27:27.368Z,30.90
2018-01-20T20:29:54.932Z,24.93
2018-01-20T20:32:22.592Z,35.47
2018-01-20T20:34:50.158Z,19.67
2018-01-20T20:37:17.717Z,21.10
2018-01-20T20:39:45.323Z,22.73
2018-01-20T20:42:13.018Z,23.53
2018-01-20T20:44:40.564Z,21.20
2018-01-20T20:47:08.130Z,19.70
2018-01-20T20:49:35.749Z,19.67
2018-01-20T20:52:03.243Z,19.03
2018-01-20T20:54:30.785Z,22.53
2018-01-20T20:56:58.440Z,24.53
2018-01-20T20:59:25.976Z,20.50
2018-01-20T21:01:53.512Z,22.07
2018-01-20T21:04:21.026Z,15.70
2018-01-20T21:06:48.536Z,16.83
2018-01-20T21:09:16.116Z,17.83
2018-01-20T21:11:43.684Z,18.33
2018-01-20T21:14:11.256Z,17.27
2018-01-20T21:16:38.840Z,18.87
2018-01-20T21:19:06.356Z,16.73
2018-01-20T21:21:34.680Z,17.10
2018-01-20T21:24:02.243Z,16.60
2018-01-20T21:26:29.772Z,24.80
2018-01-20T21:28:57.367Z,20.73
2018-01-20T21:31:24.906Z,24.37
2018-01-20T21:33:52.671Z,17.03
2018-01-20T21:36:20.189Z,20.93
2018-01-20T21:38:47.719Z,17.80
2018-01-20T21:41:15.260Z,17.07
2018-01-20T21:43:42.901Z,21.67
2018-01-20T21:46:10.457Z,17.33
2018-01-20T21:48:37.960Z,17.30
2018-01-20T21:51:05.462Z,15.77
2018-01-20T21:53:33.800Z,18.60
2018-01-20T21:56:01.312Z,18.63
2018-01-20T21:58:28.838Z,24.07
2018-01-20T22:00:57.146Z,19.17
2018-01-20T22:03:24.664Z,21.63
2018-01-20T22:05:52.224Z,25.30
2018-01-20T22:08:19.800Z,20.47
2018-01-20T22:10:48.104Z,29.20
2018-01-20T22:13:15.612Z,25.87
2018-01-20T22:15:43.148Z,23.30
2018-01-20T22:18:10.667Z,22.70
2018-01-20T22:20:38.176Z,15.10
2018-01-20T22:23:05.696Z,11.37
2018-01-20T22:25:33.250Z,12.10
2018-01-20T22:28:00.756Z,10.70
2018-01-20T22:30:28.272Z,10.83
2018-01-20T22:32:55.784Z,12.33
2018-01-20T22:35:23.282Z,10.53
2018-01-20T22:37:52.621Z,11.23
2018-01-20T22:40:20.329Z,11.40
2018-01-20T22:42:48.252Z,11.27
2018-01-20T22:45:17.340Z,17.53
2018-01-20T22:47:45.064Z,13.67
2018-01-20T22:50:13.494Z,14.23
2018-01-20T22:52:41.490Z,12.93
2018-01-20T22:55:10.138Z,12.20
2018-01-20T22:57:39.010Z,13.33
2018-01-20T23:00:06.945Z,13.13
2018-01-20T23:02:34.536Z,13.30
2018-01-20T23:05:02.048Z,12.40
2018-01-20T23:07:29.572Z,12.17
2018-01-20T23:09:57.086Z,11.93
2018-01-20T23:12:25.364Z,12.13
2018-01-20T23:14:52.910Z,13.13
2018-01-20T23:17:20.416Z,11.50
2018-01-20T23:19:47.924Z,11.80
2018-01-20T23:22:15.480Z,15.27
2018-01-20T23:24:42.988Z,14.43
2018-01-20T23:27:10.496Z,11.20
2018-01-20T23:29:38.012Z,11.43
2018-01-20T23:32:05.516Z,16.17
2018-01-20T23:34:33.028Z,12.60
2018-01-20T23:37:00.536Z,13.93
2018-01-20T23:39:28.046Z,14.90
2018-01-20T23:41:55.558Z,15.73
2018-01-20T23:44:23.103Z,18.67
2018-01-20T23:46:50.628Z,18.20
2018-01-20T23:49:18.132Z,16.77
2018-01-20T23:51:45.657Z,18.13
2018-01-20T23:54:13.156Z,18.03
2018-01-20T23:56:40.677Z,17.20
2018-01-20T23:59:08.208Z,19.43
